createdAt,value
2019-05-16T00:02:14.462Z,10.40
2019-05-16T00:04:48.021Z,10.40
2019-05-16T00:07:19.220Z,10.40
2019-05-16T00:09:50.367Z,10.40
2019-05-16T00:12:21.190Z,10.40
2019-05-16T00:14:55.428Z,10.40
2019-05-16T00:17:28.408Z,10.40
2019-05-16T00:19:59.052Z,10.30
2019-05-16T00:22:30.099Z,10.30
2019-05-16T00:25:01.007Z,10.40
2019-05-16T00:27:32.224Z,10.30
2019-05-16T00:30:03.194Z,10.40
2019-05-16T00:32:35.221Z,10.40
2019-05-16T00:35:09.275Z,10.40
2019-05-16T00:37:40.427Z,10.40
2019-05-16T00:40:11.278Z,10.30
2019-05-16T00:42:42.930Z,10.30
2019-05-16T00:45:13.926Z,10.30
2019-05-16T00:47:44.698Z,10.30
2019-05-16T00:50:18.331Z,10.30
2019-05-16T00:52:49.219Z,10.20
2019-05-16T00:55:20.259Z,10.10
2019-05-16T00:57:52.658Z,10.10
2019-05-16T01:00:49.782Z,10.10
2019-05-16T01:03:20.542Z,10.10
2019-05-16T01:05:52.024Z,10.00
2019-05-16T01:08:23.670Z,10.00
2019-05-16T01:10:54.907Z,10.10
2019-05-16T01:13:27.813Z,10.10
2019-05-16T01:15:59.255Z,10.10
2019-05-16T01:18:31.168Z,10.20
2019-05-16T01:21:01.999Z,10.20
2019-05-16T01:23:33.281Z,10.20
2019-05-16T01:26:05.041Z,10.10
2019-05-16T01:28:37.778Z,10.10
2019-05-16T01:31:09.065Z,10.00
2019-05-16T01:33:39.891Z,9.90
2019-05-16T01:36:10.403Z,9.90
2019-05-16T01:38:41.823Z,10.00
2019-05-16T01:41:12.439Z,10.00
2019-05-16T01:43:43.555Z,9.90
2019-05-16T01:46:17.861Z,10.00
2019-05-16T01:48:48.488Z,10.00
2019-05-16T01:51:19.488Z,9.90
2019-05-16T01:53:50.307Z,9.80
2019-05-16T01:56:20.941Z,9.70
2019-05-16T01:58:52.220Z,9.70
2019-05-16T02:01:22.836Z,9.60
2019-05-16T02:03:54.083Z,9.60
2019-05-16T02:06:25.115Z,9.50
2019-05-16T02:08:57.954Z,9.50
2019-05-16T02:11:29.092Z,9.60
2019-05-16T02:14:00.096Z,9.60
2019-05-16T02:16:31.104Z,9.70
2019-05-16T02:19:02.217Z,9.70
2019-05-16T02:21:32.970Z,9.80
2019-05-16T02:24:08.677Z,9.90
2019-05-16T02:26:39.492Z,10.00
2019-05-16T02:29:13.777Z,9.90
2019-05-16T02:31:43.405Z,9.90
2019-05-16T02:34:14.609Z,10.00
2019-05-16T02:36:46.429Z,10.00
2019-05-16T02:39:20.944Z,10.00
2019-05-16T02:41:51.995Z,9.90
2019-05-16T02:44:24.646Z,10.00
2019-05-16T02:46:55.665Z,10.00
2019-05-16T02:49:30.664Z,10.10
2019-05-16T02:52:01.333Z,10.20
2019-05-16T02:54:32.833Z,10.40
2019-05-16T02:57:03.535Z,10.80
2019-05-16T02:59:34.711Z,11.00
2019-05-16T04:10:10.686Z,11.00
2019-05-16T04:15:13.036Z,17.50
2019-05-16T04:17:44.137Z,17.80
2019-05-16T04:27:45.206Z,17.60
2019-05-16T04:30:16.925Z,18.40
2019-05-16T04:32:50.802Z,18.30
2019-05-16T04:37:53.380Z,18.60
2019-05-16T04:40:24.328Z,19.60
2019-05-16T04:47:56.221Z,18.90
2019-05-16T04:50:27.119Z,19.80
2019-05-16T04:53:01.172Z,20.00
2019-05-16T04:58:03.061Z,19.50
2019-05-16T05:05:34.003Z,19.50
2019-05-16T05:08:04.958Z,21.90
2019-05-16T05:18:06.292Z,21.70
2019-05-16T05:25:40.208Z,21.30
2019-05-16T05:28:13.544Z,22.30
2019-05-16T05:33:15.785Z,22.50
2019-05-16T05:50:53.086Z,22.10
2019-05-16T06:03:25.957Z,22.50
2019-05-16T06:05:57.096Z,22.70
2019-05-16T06:08:30.368Z,22.20
2019-05-16T06:11:00.946Z,22.40
2019-05-16T06:13:32.166Z,22.40
2019-05-16T06:16:02.876Z,22.70
2019-05-16T06:18:34.239Z,23.40
2019-05-16T06:23:36.384Z,23.10
2019-05-16T06:26:07.430Z,22.40
2019-05-16T06:28:41.064Z,22.80
2019-05-16T06:31:14.017Z,23.70
2019-05-16T06:33:43.583Z,23.40
2019-05-16T06:36:14.289Z,23.60
2019-05-16T06:38:45.155Z,23.10
2019-05-16T06:41:15.678Z,22.60
2019-05-16T06:43:47.148Z,22.30
2019-05-16T06:46:20.101Z,22.70
2019-05-16T06:48:50.758Z,23.40
2019-05-16T06:51:22.639Z,23.00
2019-05-16T06:53:53.488Z,22.60
2019-05-16T06:56:24.359Z,23.40
2019-05-16T06:58:55.954Z,22.90
2019-05-16T07:01:29.649Z,23.30
2019-05-16T07:04:00.506Z,23.00
2019-05-16T07:06:51.879Z,23.10
2019-05-16T07:09:05.951Z,23.70
2019-05-16T07:11:39.646Z,24.20
2019-05-16T07:16:43.171Z,24.10
2019-05-16T07:26:44.763Z,24.40
2019-05-16T07:31:46.220Z,24.70
2019-05-16T07:34:17.138Z,23.80
2019-05-16T07:36:50.191Z,24.20
2019-05-16T07:41:51.138Z,23.80
2019-05-16T07:44:23.010Z,23.60
2019-05-16T07:46:53.543Z,24.10
2019-05-16T07:49:24.656Z,24.30
2019-05-16T07:51:56.254Z,23.90
2019-05-16T07:54:27.054Z,24.00
2019-05-16T07:57:09.609Z,24.20
2019-05-16T08:04:32.163Z,24.10
2019-05-16T08:07:05.632Z,24.10
2019-05-16T08:09:36.076Z,24.00
2019-05-16T08:12:06.654Z,24.80
2019-05-16T08:14:40.772Z,24.90
2019-05-16T08:24:44.023Z,24.30
2019-05-16T08:47:22.698Z,23.60
2019-05-16T08:49:54.063Z,23.40
2019-05-16T08:52:25.486Z,23.20
2019-05-16T09:02:36.499Z,23.00
2019-05-16T09:30:17.295Z,22.20
2019-05-16T09:32:48.249Z,22.20
2019-05-16T11:05:41.624Z,22.10
2019-05-16T11:10:43.182Z,20.30
2019-05-16T11:13:17.065Z,20.10
2019-05-16T11:15:47.814Z,20.20
2019-05-16T11:28:24.942Z,20.10
2019-05-16T11:31:02.916Z,20.10
2019-05-16T11:33:28.968Z,19.90
2019-05-16T11:36:00.306Z,19.90
2019-05-16T11:38:31.133Z,20.10
2019-05-16T11:41:02.015Z,20.10
2019-05-16T11:43:33.250Z,20.20
2019-05-16T11:46:04.811Z,20.40
2019-05-16T11:48:37.733Z,20.30
2019-05-16T11:51:09.004Z,20.20
2019-05-16T11:53:40.213Z,20.20
2019-05-16T11:56:11.395Z,20.10
2019-05-16T11:58:42.567Z,20.10
2019-05-16T12:01:16.396Z,20.20
2019-05-16T12:03:46.980Z,20.20
2019-05-16T12:06:18.951Z,20.20
2019-05-16T12:08:50.078Z,19.70
2019-05-16T12:11:21.134Z,19.70
2019-05-16T12:13:52.081Z,19.70
2019-05-16T12:16:23.603Z,19.70
2019-05-16T12:18:57.149Z,19.70
2019-05-16T12:21:29.091Z,19.60
2019-05-16T12:24:00.535Z,19.60
2019-05-16T12:26:31.283Z,19.70
2019-05-16T12:29:01.986Z,19.70
2019-05-16T12:31:37.429Z,19.90
2019-05-16T12:34:09.964Z,20.00
2019-05-16T12:36:41.090Z,19.90
2019-05-16T12:39:11.822Z,19.90
2019-05-16T12:41:42.953Z,19.90
2019-05-16T12:44:16.142Z,19.80
2019-05-16T12:46:47.493Z,19.90
2019-05-16T12:49:18.348Z,20.00
2019-05-16T12:51:49.187Z,20.00
2019-05-16T12:54:19.962Z,19.90
2019-05-16T12:56:50.738Z,19.80
2019-05-16T12:59:21.851Z,19.90
2019-05-16T13:01:54.277Z,19.90
2019-05-16T13:04:27.980Z,19.90
2019-05-16T13:06:58.105Z,19.90
2019-05-16T13:09:28.763Z,19.90
2019-05-16T13:11:59.228Z,20.00
2019-05-16T13:14:30.159Z,19.90
2019-05-16T13:17:01.738Z,19.80
2019-05-16T13:19:34.104Z,19.90
2019-05-16T13:22:07.313Z,19.80
2019-05-16T13:24:38.599Z,19.70
2019-05-16T13:27:09.803Z,19.60
2019-05-16T13:29:40.993Z,19.70
2019-05-16T13:32:12.179Z,19.70
2019-05-16T13:34:43.660Z,19.70
2019-05-16T13:37:17.883Z,19.70
2019-05-16T13:39:48.520Z,19.60
2019-05-16T13:42:19.587Z,19.50
2019-05-16T13:44:50.970Z,19.60
2019-05-16T13:47:21.746Z,19.60
2019-05-16T13:49:52.716Z,19.60
2019-05-16T13:52:28.064Z,19.60
2019-05-16T13:54:57.739Z,19.60
2019-05-16T13:57:28.706Z,19.50
2019-05-16T13:59:59.540Z,19.60
2019-05-16T14:02:30.555Z,19.50
2019-05-16T14:05:02.263Z,19.50
2019-05-16T14:07:37.067Z,19.50
2019-05-16T14:10:08.079Z,19.40
2019-05-16T14:12:39.306Z,19.40
2019-05-16T14:15:11.335Z,19.50
2019-05-16T14:17:42.494Z,19.50
2019-05-16T14:20:14.953Z,19.50
2019-05-16T14:22:48.175Z,19.50
2019-05-16T14:25:19.360Z,19.50
2019-05-16T14:27:49.986Z,19.40
2019-05-16T14:30:20.952Z,19.40
2019-05-16T14:32:52.098Z,19.40
2019-05-16T14:35:22.919Z,19.50
2019-05-16T14:37:58.082Z,19.50
2019-05-16T14:40:28.474Z,19.50
2019-05-16T14:43:00.421Z,19.50
2019-05-16T14:45:31.650Z,19.50
2019-05-16T14:48:03.170Z,19.50
2019-05-16T14:50:34.173Z,19.50
2019-05-16T14:53:07.271Z,19.50
2019-05-16T14:55:38.543Z,19.50
2019-05-16T14:58:09.667Z,19.40
2019-05-16T15:00:40.724Z,19.40
2019-05-16T15:03:11.434Z,19.40
2019-05-16T15:05:43.342Z,19.50
2019-05-16T15:08:14.455Z,19.50
2019-05-16T15:10:46.851Z,19.40
2019-05-16T15:13:17.753Z,19.40
2019-05-16T15:15:49.231Z,19.40
2019-05-16T15:18:20.707Z,19.40
2019-05-16T15:20:51.402Z,19.30
2019-05-16T15:23:22.259Z,19.40
2019-05-16T15:25:53.939Z,19.30
2019-05-16T15:28:29.655Z,19.40
2019-05-16T15:30:58.181Z,19.40
2019-05-16T15:33:29.487Z,19.40
2019-05-16T15:36:00.216Z,19.40
2019-05-16T15:38:30.763Z,19.40
2019-05-16T15:41:02.049Z,19.40
2019-05-16T15:43:33.357Z,19.30
2019-05-16T15:46:07.702Z,19.40
2019-05-16T15:48:37.186Z,19.40
2019-05-16T15:51:09.123Z,19.40
2019-05-16T15:53:41.175Z,19.40
2019-05-16T15:56:12.233Z,19.40
2019-05-16T15:58:43.193Z,19.30
2019-05-16T16:01:14.538Z,19.30
2019-05-16T16:03:47.299Z,19.30
2019-05-16T16:06:18.689Z,19.30
2019-05-16T16:08:49.869Z,19.30
2019-05-16T16:11:20.880Z,19.30
2019-05-16T16:13:52.814Z,19.30
2019-05-16T16:16:23.696Z,19.30
2019-05-16T16:18:57.295Z,19.30
2019-05-16T16:21:29.140Z,19.30
2019-05-16T16:24:00.239Z,19.20
2019-05-16T16:26:31.253Z,19.20
2019-05-16T16:29:04.278Z,19.20
2019-05-16T16:31:36.862Z,19.20
2019-05-16T16:34:08.116Z,19.20
2019-05-16T16:36:38.891Z,19.20
2019-05-16T16:39:09.928Z,19.10
2019-05-16T16:41:41.399Z,19.10
2019-05-16T16:44:12.828Z,19.10
2019-05-16T16:46:46.764Z,19.00
2019-05-16T16:49:17.543Z,19.00
2019-05-16T16:51:48.744Z,19.00
2019-05-16T16:54:20.007Z,19.00
2019-05-16T16:56:50.915Z,19.00
2019-05-16T16:59:22.052Z,18.90
2019-05-16T17:01:52.901Z,18.90
2019-05-16T17:04:23.657Z,18.80
2019-05-16T17:06:56.832Z,18.80
2019-05-16T17:09:27.761Z,18.80
2019-05-16T17:11:58.523Z,18.80
2019-05-16T17:14:29.779Z,18.70
2019-05-16T17:17:01.340Z,18.70
2019-05-16T17:19:33.624Z,18.70
2019-05-16T17:22:16.682Z,18.70
2019-05-16T17:24:39.183Z,18.70
2019-05-16T17:27:10.266Z,18.60
2019-05-16T17:29:42.416Z,18.60
2019-05-16T17:32:13.310Z,18.60
2019-05-16T17:34:44.059Z,18.50
2019-05-16T17:37:17.188Z,18.50
2019-05-16T17:39:47.931Z,18.50
2019-05-16T17:42:18.928Z,18.40
2019-05-16T17:44:50.580Z,18.40
2019-05-16T17:47:23.331Z,18.40
2019-05-16T17:49:54.166Z,18.40
2019-05-16T17:52:27.189Z,18.30
2019-05-16T17:54:57.438Z,18.30
2019-05-16T17:57:30.179Z,18.30
2019-05-16T18:00:02.053Z,18.30
2019-05-16T18:02:37.298Z,18.20
2019-05-16T18:05:08.993Z,18.10
2019-05-16T18:07:40.278Z,18.10
2019-05-16T18:10:12.358Z,18.00
2019-05-16T18:12:42.996Z,18.00
2019-05-16T18:15:14.895Z,18.10
2019-05-16T18:17:46.703Z,17.90
2019-05-16T18:20:22.015Z,17.90
2019-05-16T18:22:51.901Z,17.80
2019-05-16T18:25:26.761Z,17.80
2019-05-16T18:27:56.984Z,17.70
2019-05-16T18:30:27.860Z,17.70
2019-05-16T18:32:58.849Z,17.60
2019-05-16T18:35:29.883Z,17.60
2019-05-16T18:38:01.248Z,17.50
2019-05-16T18:40:32.586Z,17.50
2019-05-16T18:43:04.662Z,17.50
2019-05-16T18:45:36.644Z,17.50
2019-05-16T18:48:07.975Z,17.50
2019-05-16T18:50:39.702Z,17.40
2019-05-16T18:53:10.370Z,17.40
2019-05-16T18:55:43.108Z,17.30
2019-05-16T18:58:14.541Z,17.30
2019-05-16T19:00:46.702Z,17.20
2019-05-16T19:03:17.965Z,17.20
2019-05-16T19:05:49.870Z,17.20
2019-05-16T19:08:23.271Z,17.10
2019-05-16T19:10:56.887Z,17.10
2019-05-16T19:13:27.703Z,17.00
2019-05-16T19:16:00.214Z,16.90
2019-05-16T19:18:30.881Z,16.80
2019-05-16T19:21:01.588Z,16.70
2019-05-16T19:23:33.141Z,16.70
2019-05-16T19:26:04.031Z,16.70
2019-05-16T19:28:36.759Z,16.70
2019-05-16T19:31:07.722Z,16.60
2019-05-16T19:33:39.233Z,16.60
2019-05-16T19:36:11.231Z,16.60
2019-05-16T19:38:41.984Z,16.50
2019-05-16T19:41:13.502Z,16.50
2019-05-16T20:23:50.947Z,16.40
2019-05-16T20:26:23.230Z,15.80
2019-05-16T20:28:53.954Z,15.70
2019-05-16T20:53:59.834Z,15.70
2019-05-16T20:56:30.408Z,15.50
2019-05-16T20:59:01.464Z,15.40
2019-05-16T21:01:32.116Z,15.40
2019-05-16T21:04:03.750Z,15.30
2019-05-16T21:06:34.490Z,15.30
2019-05-16T21:09:06.847Z,15.20
2019-05-16T21:11:38.087Z,15.20
2019-05-16T21:14:08.775Z,15.20
2019-05-16T21:16:39.895Z,15.20
2019-05-16T21:19:10.408Z,15.20
2019-05-16T21:21:41.838Z,15.20
2019-05-16T21:24:12.975Z,15.10
2019-05-16T21:26:46.067Z,15.00
2019-05-16T21:29:19.594Z,14.90
2019-05-16T21:31:50.233Z,14.90
2019-05-16T23:47:22.071Z,14.90
2019-05-16T23:49:52.898Z,13.00
2019-05-16T23:52:24.574Z,12.90
2019-05-16T23:54:57.000Z,12.80
2019-05-16T23:57:27.799Z,12.70
2019-05-16T23:59:58.643Z,12.70
